sensor_id;sensor_type;location;lat;lon;timestamp;P1;durP1;ratioP1;P2;durP2;ratioP2
51618;SDS011;38518;53.164;5.430;2022-09-09T00:03:53;13.13;;;11.90;;
51618;SDS011;38518;53.164;5.430;2022-09-09T00:06:28;13.60;;;12.20;;
51618;SDS011;38518;53.164;5.430;2022-09-09T00:09:18;13.80;;;12.40;;
51618;SDS011;38518;53.164;5.430;2022-09-09T00:11:50;16.23;;;13.23;;
51618;SDS011;38518;53.164;5.430;2022-09-09T00:17:09;14.75;;;13.13;;
51618;SDS011;38518;53.164;5.430;2022-09-09T00:20:01;14.93;;;13.30;;
51618;SDS011;38518;53.164;5.430;2022-09-09T00:22:36;15.07;;;13.67;;
51618;SDS011;38518;53.164;5.430;2022-09-09T00:25:12;16.88;;;14.75;;
51618;SDS011;38518;53.164;5.430;2022-09-09T00:27:48;15.73;;;14.32;;
51618;SDS011;38518;53.164;5.430;2022-09-09T00:30:19;16.20;;;14.52;;
51618;SDS011;38518;53.164;5.430;2022-09-09T00:32:48;16.90;;;15.32;;
51618;SDS011;38518;53.164;5.430;2022-09-09T00:35:36;15.50;;;14.00;;
51618;SDS011;38518;53.164;5.430;2022-09-09T00:41:00;18.20;;;14.85;;
51618;SDS011;38518;53.164;5.430;2022-09-09T00:43:37;16.67;;;14.98;;
51618;SDS011;38518;53.164;5.430;2022-09-09T00:46:08;16.77;;;15.13;;
51618;SDS011;38518;53.164;5.430;2022-09-09T00:49:07;17.70;;;15.90;;
51618;SDS011;38518;53.164;5.430;2022-09-09T00:57:04;17.70;;;15.90;;
51618;SDS011;38518;53.164;5.430;2022-09-09T00:59:39;19.23;;;15.30;;
51618;SDS011;38518;53.164;5.430;2022-09-09T01:02:31;17.85;;;15.75;;
51618;SDS011;38518;53.164;5.430;2022-09-09T01:05:13;17.42;;;15.68;;
51618;SDS011;38518;53.164;5.430;2022-09-09T01:07:51;15.80;;;14.18;;
51618;SDS011;38518;53.164;5.430;2022-09-09T01:10:21;18.17;;;15.38;;
51618;SDS011;38518;53.164;5.430;2022-09-09T01:13:12;17.70;;;15.70;;
51618;SDS011;38518;53.164;5.430;2022-09-09T01:15:59;19.15;;;16.17;;
51618;SDS011;38518;53.164;5.430;2022-09-09T01:18:32;17.40;;;15.60;;
51618;SDS011;38518;53.164;5.430;2022-09-09T01:26:18;16.73;;;15.00;;
51618;SDS011;38518;53.164;5.430;2022-09-09T01:28:45;19.42;;;15.80;;
51618;SDS011;38518;53.164;5.430;2022-09-09T01:31:31;17.73;;;15.82;;
51618;SDS011;38518;53.164;5.430;2022-09-09T01:34:01;17.63;;;15.93;;
51618;SDS011;38518;53.164;5.430;2022-09-09T01:39:16;18.33;;;16.25;;
51618;SDS011;38518;53.164;5.430;2022-09-09T01:41:42;19.20;;;15.52;;
51618;SDS011;38518;53.164;5.430;2022-09-09T01:44:08;18.58;;;15.85;;
51618;SDS011;38518;53.164;5.430;2022-09-09T01:46:35;18.58;;;16.67;;
51618;SDS011;38518;53.164;5.430;2022-09-09T01:49:01;18.98;;;16.27;;
51618;SDS011;38518;53.164;5.430;2022-09-09T01:51:28;17.77;;;15.98;;
51618;SDS011;38518;53.164;5.430;2022-09-09T01:53:55;17.70;;;15.75;;
51618;SDS011;38518;53.164;5.430;2022-09-09T01:56:35;17.20;;;15.48;;
51618;SDS011;38518;53.164;5.430;2022-09-09T01:59:07;17.83;;;15.90;;
51618;SDS011;38518;53.164;5.430;2022-09-09T02:02:00;17.95;;;15.07;;
51618;SDS011;38518;53.164;5.430;2022-09-09T02:04:36;21.90;;;16.63;;
51618;SDS011;38518;53.164;5.430;2022-09-09T02:07:10;16.70;;;14.93;;
51618;SDS011;38518;53.164;5.430;2022-09-09T02:09:42;17.98;;;15.93;;
51618;SDS011;38518;53.164;5.430;2022-09-09T02:12:13;17.98;;;15.32;;
51618;SDS011;38518;53.164;5.430;2022-09-09T02:14:47;17.35;;;15.52;;
51618;SDS011;38518;53.164;5.430;2022-09-09T02:17:22;18.27;;;15.48;;
51618;SDS011;38518;53.164;5.430;2022-09-09T02:22:52;16.67;;;14.80;;
51618;SDS011;38518;53.164;5.430;2022-09-09T02:25:19;16.98;;;15.27;;
51618;SDS011;38518;53.164;5.430;2022-09-09T02:27:47;17.70;;;16.00;;
51618;SDS011;38518;53.164;5.430;2022-09-09T02:30:16;16.20;;;14.55;;
51618;SDS011;38518;53.164;5.430;2022-09-09T02:32:43;17.85;;;15.88;;
51618;SDS011;38518;53.164;5.430;2022-09-09T02:35:12;14.98;;;11.80;;
51618;SDS011;38518;53.164;5.430;2022-09-09T02:37:42;18.75;;;16.02;;
51618;SDS011;38518;53.164;5.430;2022-09-09T02:40:11;17.23;;;14.57;;
51618;SDS011;38518;53.164;5.430;2022-09-09T02:42:40;16.77;;;15.10;;
51618;SDS011;38518;53.164;5.430;2022-09-09T02:45:08;18.08;;;14.93;;
51618;SDS011;38518;53.164;5.430;2022-09-09T02:50:25;18.83;;;16.13;;
51618;SDS011;38518;53.164;5.430;2022-09-09T02:55:41;18.17;;;16.27;;
51618;SDS011;38518;53.164;5.430;2022-09-09T02:58:29;20.65;;;16.23;;
51618;SDS011;38518;53.164;5.430;2022-09-09T03:00:54;18.90;;;15.25;;
51618;SDS011;38518;53.164;5.430;2022-09-09T03:03:22;18.95;;;16.23;;
51618;SDS011;38518;53.164;5.430;2022-09-09T03:05:48;22.98;;;17.13;;
51618;SDS011;38518;53.164;5.430;2022-09-09T03:08:14;17.15;;;15.35;;
51618;SDS011;38518;53.164;5.430;2022-09-09T03:10:40;19.08;;;16.15;;
51618;SDS011;38518;53.164;5.430;2022-09-09T03:13:06;20.73;;;16.17;;
51618;SDS011;38518;53.164;5.430;2022-09-09T03:15:33;19.35;;;16.42;;
51618;SDS011;38518;53.164;5.430;2022-09-09T03:17:59;18.52;;;15.85;;
51618;SDS011;38518;53.164;5.430;2022-09-09T03:20:25;21.48;;;16.00;;
51618;SDS011;38518;53.164;5.430;2022-09-09T03:22:53;18.95;;;17.02;;
51618;SDS011;38518;53.164;5.430;2022-09-09T03:25:20;17.92;;;16.13;;
51618;SDS011;38518;53.164;5.430;2022-09-09T03:27:48;18.98;;;17.02;;
51618;SDS011;38518;53.164;5.430;2022-09-09T03:30:14;21.27;;;17.45;;
51618;SDS011;38518;53.164;5.430;2022-09-09T03:32:40;17.13;;;15.32;;
51618;SDS011;38518;53.164;5.430;2022-09-09T03:35:06;18.67;;;16.75;;
51618;SDS011;38518;53.164;5.430;2022-09-09T03:37:33;17.35;;;15.65;;
51618;SDS011;38518;53.164;5.430;2022-09-09T03:39:58;16.75;;;14.98;;
51618;SDS011;38518;53.164;5.430;2022-09-09T03:42:25;18.00;;;16.10;;
51618;SDS011;38518;53.164;5.430;2022-09-09T03:44:51;16.90;;;15.02;;
51618;SDS011;38518;53.164;5.430;2022-09-09T03:47:17;16.25;;;14.45;;
51618;SDS011;38518;53.164;5.430;2022-09-09T03:49:45;18.27;;;14.95;;
51618;SDS011;38518;53.164;5.430;2022-09-09T03:52:10;17.83;;;14.57;;
51618;SDS011;38518;53.164;5.430;2022-09-09T03:54:37;16.65;;;14.98;;
51618;SDS011;38518;53.164;5.430;2022-09-09T03:57:03;15.88;;;14.27;;
51618;SDS011;38518;53.164;5.430;2022-09-09T03:59:29;15.45;;;13.85;;
51618;SDS011;38518;53.164;5.430;2022-09-09T04:01:55;15.65;;;13.95;;
51618;SDS011;38518;53.164;5.430;2022-09-09T04:04:22;15.15;;;13.63;;
51618;SDS011;38518;53.164;5.430;2022-09-09T04:06:47;20.25;;;14.52;;
51618;SDS011;38518;53.164;5.430;2022-09-09T04:09:13;16.52;;;14.82;;
51618;SDS011;38518;53.164;5.430;2022-09-09T04:11:39;17.85;;;14.27;;
51618;SDS011;38518;53.164;5.430;2022-09-09T04:14:05;14.25;;;12.77;;
51618;SDS011;38518;53.164;5.430;2022-09-09T04:16:32;15.50;;;14.10;;
51618;SDS011;38518;53.164;5.430;2022-09-09T04:18:58;16.00;;;14.10;;
51618;SDS011;38518;53.164;5.430;2022-09-09T04:21:25;16.17;;;14.13;;
51618;SDS011;38518;53.164;5.430;2022-09-09T04:23:54;19.13;;;15.63;;
51618;SDS011;38518;53.164;5.430;2022-09-09T04:26:19;18.55;;;16.63;;
51618;SDS011;38518;53.164;5.430;2022-09-09T04:28:45;21.30;;;18.50;;
51618;SDS011;38518;53.164;5.430;2022-09-09T04:31:17;25.42;;;20.27;;
51618;SDS011;38518;53.164;5.430;2022-09-09T04:33:45;26.20;;;22.00;;
51618;SDS011;38518;53.164;5.430;2022-09-09T04:36:11;29.58;;;23.02;;
51618;SDS011;38518;53.164;5.430;2022-09-09T04:38:37;29.65;;;24.50;;
51618;SDS011;38518;53.164;5.430;2022-09-09T04:41:04;35.40;;;25.65;;
51618;SDS011;38518;53.164;5.430;2022-09-09T04:43:30;29.17;;;24.58;;
51618;SDS011;38518;53.164;5.430;2022-09-09T04:45:56;34.28;;;27.00;;
51618;SDS011;38518;53.164;5.430;2022-09-09T04:48:22;37.90;;;27.90;;
51618;SDS011;38518;53.164;5.430;2022-09-09T04:50:58;34.40;;;27.00;;
51618;SDS011;38518;53.164;5.430;2022-09-09T04:53:31;35.67;;;28.55;;
51618;SDS011;38518;53.164;5.430;2022-09-09T04:56:03;37.15;;;28.55;;
51618;SDS011;38518;53.164;5.430;2022-09-09T04:58:30;32.80;;;27.08;;
51618;SDS011;38518;53.164;5.430;2022-09-09T05:01:10;33.67;;;27.90;;
51618;SDS011;38518;53.164;5.430;2022-09-09T05:03:40;37.92;;;28.45;;
51618;SDS011;38518;53.164;5.430;2022-09-09T05:06:08;36.15;;;28.63;;
51618;SDS011;38518;53.164;5.430;2022-09-09T05:08:36;30.88;;;27.25;;
51618;SDS011;38518;53.164;5.430;2022-09-09T05:11:03;31.88;;;26.77;;
51618;SDS011;38518;53.164;5.430;2022-09-09T05:13:37;33.30;;;27.20;;
51618;SDS011;38518;53.164;5.430;2022-09-09T05:16:03;33.28;;;25.77;;
51618;SDS011;38518;53.164;5.430;2022-09-09T05:18:29;28.67;;;24.95;;
51618;SDS011;38518;53.164;5.430;2022-09-09T05:20:58;28.85;;;23.98;;
51618;SDS011;38518;53.164;5.430;2022-09-09T05:23:25;29.83;;;23.90;;
51618;SDS011;38518;53.164;5.430;2022-09-09T05:25:58;22.80;;;20.33;;
51618;SDS011;38518;53.164;5.430;2022-09-09T05:28:24;20.25;;;18.20;;
51618;SDS011;38518;53.164;5.430;2022-09-09T05:31:01;18.58;;;15.75;;
51618;SDS011;38518;53.164;5.430;2022-09-09T05:33:33;17.00;;;15.30;;
51618;SDS011;38518;53.164;5.430;2022-09-09T05:36:01;19.70;;;15.48;;
51618;SDS011;38518;53.164;5.430;2022-09-09T05:38:31;15.35;;;13.75;;
51618;SDS011;38518;53.164;5.430;2022-09-09T05:40:58;15.48;;;13.48;;
51618;SDS011;38518;53.164;5.430;2022-09-09T05:43:24;14.90;;;12.98;;
51618;SDS011;38518;53.164;5.430;2022-09-09T05:45:58;17.17;;;13.95;;
51618;SDS011;38518;53.164;5.430;2022-09-09T05:48:33;17.70;;;14.60;;
51618;SDS011;38518;53.164;5.430;2022-09-09T05:51:00;18.67;;;14.52;;
51618;SDS011;38518;53.164;5.430;2022-09-09T05:53:27;19.63;;;15.13;;
51618;SDS011;38518;53.164;5.430;2022-09-09T05:56:04;18.50;;;13.85;;
51618;SDS011;38518;53.164;5.430;2022-09-09T05:58:31;16.05;;;14.35;;
51618;SDS011;38518;53.164;5.430;2022-09-09T06:01:02;18.45;;;15.00;;
51618;SDS011;38518;53.164;5.430;2022-09-09T06:03:35;18.00;;;15.45;;
51618;SDS011;38518;53.164;5.430;2022-09-09T06:06:04;19.25;;;14.00;;
51618;SDS011;38518;53.164;5.430;2022-09-09T06:08:32;19.00;;;14.68;;
51618;SDS011;38518;53.164;5.430;2022-09-09T06:11:03;16.98;;;14.38;;
51618;SDS011;38518;53.164;5.430;2022-09-09T06:13:31;20.65;;;15.70;;
51618;SDS011;38518;53.164;5.430;2022-09-09T06:15:57;21.65;;;16.77;;
51618;SDS011;38518;53.164;5.430;2022-09-09T06:18:23;20.60;;;16.55;;
51618;SDS011;38518;53.164;5.430;2022-09-09T06:20:57;19.35;;;16.50;;
51618;SDS011;38518;53.164;5.430;2022-09-09T06:23:25;18.70;;;15.57;;
51618;SDS011;38518;53.164;5.430;2022-09-09T06:26:00;20.80;;;17.75;;
51618;SDS011;38518;53.164;5.430;2022-09-09T06:28:46;20.17;;;17.02;;
51618;SDS011;38518;53.164;5.430;2022-09-09T06:31:15;20.60;;;17.33;;
51618;SDS011;38518;53.164;5.430;2022-09-09T06:33:52;19.10;;;17.10;;
51618;SDS011;38518;53.164;5.430;2022-09-09T06:38:48;18.00;;;16.25;;
51618;SDS011;38518;53.164;5.430;2022-09-09T06:41:15;20.00;;;16.83;;
51618;SDS011;38518;53.164;5.430;2022-09-09T06:43:43;19.02;;;17.05;;
51618;SDS011;38518;53.164;5.430;2022-09-09T06:46:10;20.20;;;17.98;;
51618;SDS011;38518;53.164;5.430;2022-09-09T06:48:36;19.15;;;17.25;;
51618;SDS011;38518;53.164;5.430;2022-09-09T06:51:06;18.48;;;16.58;;
51618;SDS011;38518;53.164;5.430;2022-09-09T06:53:34;19.42;;;17.52;;
51618;SDS011;38518;53.164;5.430;2022-09-09T06:58:42;18.40;;;16.55;;
51618;SDS011;38518;53.164;5.430;2022-09-09T07:01:09;17.48;;;15.70;;
51618;SDS011;38518;53.164;5.430;2022-09-09T07:03:37;17.17;;;15.35;;
51618;SDS011;38518;53.164;5.430;2022-09-09T07:06:07;15.27;;;13.50;;
51618;SDS011;38518;53.164;5.430;2022-09-09T07:08:43;13.82;;;12.00;;
51618;SDS011;38518;53.164;5.430;2022-09-09T07:11:09;12.88;;;11.57;;
51618;SDS011;38518;53.164;5.430;2022-09-09T07:13:36;11.95;;;10.90;;
51618;SDS011;38518;53.164;5.430;2022-09-09T07:18:32;11.77;;;10.45;;
51618;SDS011;38518;53.164;5.430;2022-09-09T07:20:58;10.00;;;9.10;;
51618;SDS011;38518;53.164;5.430;2022-09-09T07:23:24;10.73;;;9.63;;
51618;SDS011;38518;53.164;5.430;2022-09-09T07:25:51;11.32;;;10.23;;
51618;SDS011;38518;53.164;5.430;2022-09-09T07:28:18;10.30;;;9.30;;
51618;SDS011;38518;53.164;5.430;2022-09-09T07:30:58;10.02;;;9.02;;
51618;SDS011;38518;53.164;5.430;2022-09-09T07:33:28;9.80;;;8.80;;
51618;SDS011;38518;53.164;5.430;2022-09-09T07:38:32;8.98;;;7.95;;
51618;SDS011;38518;53.164;5.430;2022-09-09T07:41:06;9.07;;;7.80;;
51618;SDS011;38518;53.164;5.430;2022-09-09T07:43:37;9.23;;;8.25;;
51618;SDS011;38518;53.164;5.430;2022-09-09T07:46:07;9.50;;;8.40;;
51618;SDS011;38518;53.164;5.430;2022-09-09T07:48:34;9.55;;;8.70;;
51618;SDS011;38518;53.164;5.430;2022-09-09T07:51:07;10.20;;;9.15;;
51618;SDS011;38518;53.164;5.430;2022-09-09T07:53:40;11.00;;;9.82;;
51618;SDS011;38518;53.164;5.430;2022-09-09T07:56:10;10.82;;;9.43;;
51618;SDS011;38518;53.164;5.430;2022-09-09T07:58:37;9.77;;;8.38;;
51618;SDS011;38518;53.164;5.430;2022-09-09T08:01:12;9.52;;;8.45;;
51618;SDS011;38518;53.164;5.430;2022-09-09T08:06:06;8.60;;;7.70;;
51618;SDS011;38518;53.164;5.430;2022-09-09T08:08:33;9.55;;;7.43;;
51618;SDS011;38518;53.164;5.430;2022-09-09T08:13:37;9.98;;;7.00;;
51618;SDS011;38518;53.164;5.430;2022-09-09T08:16:04;9.35;;;6.55;;
51618;SDS011;38518;53.164;5.430;2022-09-09T08:18:31;9.15;;;6.90;;
51618;SDS011;38518;53.164;5.430;2022-09-09T08:20:58;9.20;;;6.57;;
51618;SDS011;38518;53.164;5.430;2022-09-09T08:23:29;7.88;;;6.60;;
51618;SDS011;38518;53.164;5.430;2022-09-09T08:26:02;10.05;;;6.68;;
51618;SDS011;38518;53.164;5.430;2022-09-09T08:28:29;7.70;;;6.10;;
51618;SDS011;38518;53.164;5.430;2022-09-09T08:30:56;8.27;;;6.65;;
51618;SDS011;38518;53.164;5.430;2022-09-09T08:33:29;7.40;;;6.13;;
51618;SDS011;38518;53.164;5.430;2022-09-09T08:35:55;6.80;;;6.10;;
51618;SDS011;38518;53.164;5.430;2022-09-09T08:38:21;7.53;;;5.85;;
51618;SDS011;38518;53.164;5.430;2022-09-09T08:40:46;6.97;;;5.70;;
51618;SDS011;38518;53.164;5.430;2022-09-09T08:43:18;7.68;;;6.25;;
51618;SDS011;38518;53.164;5.430;2022-09-09T08:45:55;7.35;;;5.93;;
51618;SDS011;38518;53.164;5.430;2022-09-09T08:49:06;9.03;;;5.63;;
51618;SDS011;38518;53.164;5.430;2022-09-09T08:51:31;8.60;;;6.28;;
51618;SDS011;38518;53.164;5.430;2022-09-09T08:53:59;12.10;;;6.25;;
51618;SDS011;38518;53.164;5.430;2022-09-09T08:56:28;9.50;;;6.22;;
51618;SDS011;38518;53.164;5.430;2022-09-09T08:58:57;9.75;;;6.30;;
51618;SDS011;38518;53.164;5.430;2022-09-09T09:12:41;6.00;;;5.38;;
51618;SDS011;38518;53.164;5.430;2022-09-09T09:17:48;8.63;;;4.40;;
51618;SDS011;38518;53.164;5.430;2022-09-09T09:20:14;9.27;;;4.57;;
51618;SDS011;38518;53.164;5.430;2022-09-09T09:22:51;7.38;;;3.90;;
51618;SDS011;38518;53.164;5.430;2022-09-09T09:25:21;7.57;;;3.53;;
51618;SDS011;38518;53.164;5.430;2022-09-09T09:27:58;9.05;;;4.13;;
51618;SDS011;38518;53.164;5.430;2022-09-09T09:30:50;7.03;;;3.90;;
51618;SDS011;38518;53.164;5.430;2022-09-09T09:33:19;6.90;;;3.88;;
51618;SDS011;38518;53.164;5.430;2022-09-09T09:36:01;6.50;;;3.60;;
51618;SDS011;38518;53.164;5.430;2022-09-09T09:38:28;7.75;;;4.25;;
51618;SDS011;38518;53.164;5.430;2022-09-09T09:40:55;7.35;;;3.92;;
51618;SDS011;38518;53.164;5.430;2022-09-09T09:45:55;7.90;;;3.10;;
51618;SDS011;38518;53.164;5.430;2022-09-09T09:48:25;4.85;;;3.30;;
51618;SDS011;38518;53.164;5.430;2022-09-09T09:50:54;7.20;;;3.35;;
51618;SDS011;38518;53.164;5.430;2022-09-09T09:53:26;6.75;;;3.30;;
51618;SDS011;38518;53.164;5.430;2022-09-09T09:55:54;6.25;;;3.30;;
51618;SDS011;38518;53.164;5.430;2022-09-09T10:01:33;7.75;;;3.03;;
51618;SDS011;38518;53.164;5.430;2022-09-09T10:04:13;5.32;;;2.60;;
51618;SDS011;38518;53.164;5.430;2022-09-09T10:06:41;6.28;;;2.92;;
51618;SDS011;38518;53.164;5.430;2022-09-09T10:19:57;6.25;;;2.58;;
51618;SDS011;38518;53.164;5.430;2022-09-09T10:22:33;4.90;;;1.80;;
51618;SDS011;38518;53.164;5.430;2022-09-09T10:33:33;5.90;;;2.72;;
51618;SDS011;38518;53.164;5.430;2022-09-09T10:36:16;5.97;;;2.35;;
51618;SDS011;38518;53.164;5.430;2022-09-09T10:38:53;6.95;;;2.35;;
51618;SDS011;38518;53.164;5.430;2022-09-09T10:55:06;6.30;;;2.40;;
51618;SDS011;38518;53.164;5.430;2022-09-09T10:57:53;5.85;;;2.33;;
51618;SDS011;38518;53.164;5.430;2022-09-09T11:00:30;6.53;;;2.00;;
51618;SDS011;38518;53.164;5.430;2022-09-09T11:03:03;5.78;;;2.20;;
51618;SDS011;38518;53.164;5.430;2022-09-09T11:05:42;7.45;;;2.20;;
51618;SDS011;38518;53.164;5.430;2022-09-09T11:14:01;4.30;;;2.00;;
51618;SDS011;38518;53.164;5.430;2022-09-09T11:21:52;4.30;;;1.90;;
51618;SDS011;38518;53.164;5.430;2022-09-09T11:26:55;5.47;;;1.75;;
51618;SDS011;38518;53.164;5.430;2022-09-09T11:32:22;5.93;;;2.13;;
51618;SDS011;38518;53.164;5.430;2022-09-09T11:38:02;7.25;;;2.40;;
51618;SDS011;38518;53.164;5.430;2022-09-09T11:40:43;7.40;;;2.10;;
51618;SDS011;38518;53.164;5.430;2022-09-09T11:45:55;4.75;;;2.20;;
51618;SDS011;38518;53.164;5.430;2022-09-09T11:51:04;5.85;;;2.08;;
51618;SDS011;38518;53.164;5.430;2022-09-09T11:53:36;4.72;;;2.20;;
51618;SDS011;38518;53.164;5.430;2022-09-09T12:01:43;5.40;;;2.28;;
51618;SDS011;38518;53.164;5.430;2022-09-09T12:04:12;5.70;;;2.58;;
51618;SDS011;38518;53.164;5.430;2022-09-09T12:06:43;6.28;;;2.50;;
51618;SDS011;38518;53.164;5.430;2022-09-09T12:09:25;4.78;;;2.40;;
51618;SDS011;38518;53.164;5.430;2022-09-09T12:12:06;6.80;;;2.80;;
51618;SDS011;38518;53.164;5.430;2022-09-09T12:17:41;6.25;;;3.20;;
51618;SDS011;38518;53.164;5.430;2022-09-09T12:25:22;5.18;;;2.88;;
51618;SDS011;38518;53.164;5.430;2022-09-09T12:30:31;6.18;;;2.65;;
51618;SDS011;38518;53.164;5.430;2022-09-09T12:33:10;4.28;;;2.78;;
51618;SDS011;38518;53.164;5.430;2022-09-09T12:35:41;6.13;;;2.75;;
51618;SDS011;38518;53.164;5.430;2022-09-09T12:38:14;6.75;;;2.38;;
51618;SDS011;38518;53.164;5.430;2022-09-09T12:40:54;5.45;;;2.40;;
51618;SDS011;38518;53.164;5.430;2022-09-09T12:43:22;5.82;;;2.50;;
51618;SDS011;38518;53.164;5.430;2022-09-09T12:45:49;3.75;;;2.15;;
51618;SDS011;38518;53.164;5.430;2022-09-09T12:48:29;3.88;;;2.10;;
51618;SDS011;38518;53.164;5.430;2022-09-09T12:50:59;5.70;;;2.22;;
51618;SDS011;38518;53.164;5.430;2022-09-09T12:53:31;6.32;;;2.53;;
51618;SDS011;38518;53.164;5.430;2022-09-09T12:56:08;7.90;;;2.80;;
51618;SDS011;38518;53.164;5.430;2022-09-09T12:58:45;6.28;;;2.58;;
51618;SDS011;38518;53.164;5.430;2022-09-09T13:01:24;5.50;;;2.90;;
51618;SDS011;38518;53.164;5.430;2022-09-09T13:03:51;6.55;;;2.55;;
51618;SDS011;38518;53.164;5.430;2022-09-09T13:06:30;5.97;;;2.75;;
51618;SDS011;38518;53.164;5.430;2022-09-09T13:08:58;6.35;;;3.00;;
51618;SDS011;38518;53.164;5.430;2022-09-09T13:11:26;5.20;;;2.50;;
51618;SDS011;38518;53.164;5.430;2022-09-09T13:14:28;5.95;;;2.67;;
51618;SDS011;38518;53.164;5.430;2022-09-09T13:17:00;4.55;;;2.35;;
51618;SDS011;38518;53.164;5.430;2022-09-09T13:19:32;6.20;;;2.40;;
51618;SDS011;38518;53.164;5.430;2022-09-09T13:22:11;5.57;;;2.30;;
51618;SDS011;38518;53.164;5.430;2022-09-09T13:24:45;6.07;;;2.53;;
51618;SDS011;38518;53.164;5.430;2022-09-09T13:27:26;6.72;;;2.22;;
51618;SDS011;38518;53.164;5.430;2022-09-09T13:30:26;5.03;;;2.20;;
51618;SDS011;38518;53.164;5.430;2022-09-09T13:33:06;5.88;;;2.50;;
51618;SDS011;38518;53.164;5.430;2022-09-09T13:35:52;4.07;;;2.03;;
51618;SDS011;38518;53.164;5.430;2022-09-09T13:38:20;5.65;;;2.08;;
51618;SDS011;38518;53.164;5.430;2022-09-09T13:43:45;4.18;;;1.85;;
51618;SDS011;38518;53.164;5.430;2022-09-09T13:51:36;3.72;;;1.90;;
51618;SDS011;38518;53.164;5.430;2022-09-09T13:54:06;2.53;;;1.60;;
51618;SDS011;38518;53.164;5.430;2022-09-09T13:56:34;4.47;;;1.85;;
51618;SDS011;38518;53.164;5.430;2022-09-09T13:59:03;4.80;;;1.90;;
51618;SDS011;38518;53.164;5.430;2022-09-09T14:01:30;3.88;;;2.00;;
51618;SDS011;38518;53.164;5.430;2022-09-09T14:03:56;3.30;;;1.67;;
51618;SDS011;38518;53.164;5.430;2022-09-09T14:06:22;3.33;;;1.70;;
51618;SDS011;38518;53.164;5.430;2022-09-09T14:08:51;4.10;;;1.70;;
51618;SDS011;38518;53.164;5.430;2022-09-09T14:11:17;3.78;;;1.90;;
51618;SDS011;38518;53.164;5.430;2022-09-09T14:13:44;3.40;;;1.83;;
51618;SDS011;38518;53.164;5.430;2022-09-09T14:16:10;3.92;;;1.70;;
51618;SDS011;38518;53.164;5.430;2022-09-09T14:18:36;4.20;;;2.00;;
51618;SDS011;38518;53.164;5.430;2022-09-09T14:21:03;4.05;;;2.10;;
51618;SDS011;38518;53.164;5.430;2022-09-09T14:23:28;4.47;;;1.95;;
51618;SDS011;38518;53.164;5.430;2022-09-09T14:25:54;3.08;;;2.13;;
51618;SDS011;38518;53.164;5.430;2022-09-09T14:28:21;4.38;;;2.22;;
51618;SDS011;38518;53.164;5.430;2022-09-09T14:30:47;5.10;;;2.10;;
51618;SDS011;38518;53.164;5.430;2022-09-09T14:33:13;6.15;;;2.58;;
51618;SDS011;38518;53.164;5.430;2022-09-09T14:35:41;4.85;;;2.08;;
51618;SDS011;38518;53.164;5.430;2022-09-09T14:38:08;8.60;;;2.10;;
51618;SDS011;38518;53.164;5.430;2022-09-09T14:40:35;7.93;;;2.20;;
51618;SDS011;38518;53.164;5.430;2022-09-09T14:43:01;3.97;;;2.17;;
51618;SDS011;38518;53.164;5.430;2022-09-09T14:45:28;3.20;;;2.55;;
51618;SDS011;38518;53.164;5.430;2022-09-09T14:47:54;4.60;;;3.08;;
51618;SDS011;38518;53.164;5.430;2022-09-09T14:50:20;5.57;;;2.85;;
51618;SDS011;38518;53.164;5.430;2022-09-09T14:52:47;3.63;;;2.90;;
51618;SDS011;38518;53.164;5.430;2022-09-09T14:55:13;5.18;;;3.20;;
51618;SDS011;38518;53.164;5.430;2022-09-09T14:57:40;7.88;;;3.30;;
51618;SDS011;38518;53.164;5.430;2022-09-09T15:00:08;4.30;;;3.47;;
51618;SDS011;38518;53.164;5.430;2022-09-09T15:02:35;4.28;;;3.25;;
51618;SDS011;38518;53.164;5.430;2022-09-09T15:05:01;6.18;;;3.20;;
51618;SDS011;38518;53.164;5.430;2022-09-09T15:07:26;5.85;;;3.30;;
51618;SDS011;38518;53.164;5.430;2022-09-09T15:09:53;4.80;;;3.53;;
51618;SDS011;38518;53.164;5.430;2022-09-09T15:12:20;6.47;;;3.80;;
51618;SDS011;38518;53.164;5.430;2022-09-09T15:14:46;5.65;;;3.55;;
51618;SDS011;38518;53.164;5.430;2022-09-09T15:17:12;4.72;;;3.22;;
51618;SDS011;38518;53.164;5.430;2022-09-09T15:19:37;4.72;;;3.58;;
51618;SDS011;38518;53.164;5.430;2022-09-09T15:22:04;3.97;;;2.90;;
51618;SDS011;38518;53.164;5.430;2022-09-09T15:24:34;3.88;;;2.95;;
51618;SDS011;38518;53.164;5.430;2022-09-09T15:27:00;6.05;;;3.15;;
51618;SDS011;38518;53.164;5.430;2022-09-09T15:29:27;3.75;;;3.03;;
51618;SDS011;38518;53.164;5.430;2022-09-09T15:31:53;5.40;;;3.05;;
51618;SDS011;38518;53.164;5.430;2022-09-09T15:34:20;4.22;;;2.90;;
51618;SDS011;38518;53.164;5.430;2022-09-09T15:36:46;4.68;;;3.03;;
51618;SDS011;38518;53.164;5.430;2022-09-09T15:39:13;3.90;;;2.95;;
51618;SDS011;38518;53.164;5.430;2022-09-09T15:41:41;4.22;;;3.22;;
51618;SDS011;38518;53.164;5.430;2022-09-09T15:44:08;4.80;;;3.17;;
51618;SDS011;38518;53.164;5.430;2022-09-09T15:51:38;4.00;;;3.33;;
51618;SDS011;38518;53.164;5.430;2022-09-09T15:54:08;4.97;;;3.33;;
51618;SDS011;38518;53.164;5.430;2022-09-09T15:56:35;4.35;;;3.17;;
51618;SDS011;38518;53.164;5.430;2022-09-09T15:59:01;4.30;;;2.70;;
51618;SDS011;38518;53.164;5.430;2022-09-09T16:01:28;2.33;;;1.45;;
51618;SDS011;38518;53.164;5.430;2022-09-09T16:03:56;1.83;;;1.30;;
51618;SDS011;38518;53.164;5.430;2022-09-09T16:06:23;2.38;;;1.40;;
51618;SDS011;38518;53.164;5.430;2022-09-09T16:08:51;3.25;;;1.83;;
51618;SDS011;38518;53.164;5.430;2022-09-09T16:11:19;3.90;;;1.85;;
51618;SDS011;38518;53.164;5.430;2022-09-09T16:13:50;1.80;;;1.40;;
51618;SDS011;38518;53.164;5.430;2022-09-09T16:16:18;2.95;;;1.50;;
51618;SDS011;38518;53.164;5.430;2022-09-09T16:18:47;3.70;;;1.92;;
51618;SDS011;38518;53.164;5.430;2022-09-09T16:21:24;2.60;;;1.77;;
51618;SDS011;38518;53.164;5.430;2022-09-09T16:23:54;3.88;;;2.08;;
51618;SDS011;38518;53.164;5.430;2022-09-09T16:26:21;3.55;;;2.35;;
51618;SDS011;38518;53.164;5.430;2022-09-09T16:28:47;3.55;;;2.22;;
51618;SDS011;38518;53.164;5.430;2022-09-09T16:31:18;3.22;;;2.33;;
51618;SDS011;38518;53.164;5.430;2022-09-09T16:33:46;3.03;;;2.13;;
51618;SDS011;38518;53.164;5.430;2022-09-09T16:36:23;3.83;;;2.30;;
51618;SDS011;38518;53.164;5.430;2022-09-09T16:38:55;3.00;;;2.10;;
51618;SDS011;38518;53.164;5.430;2022-09-09T16:41:22;2.85;;;2.10;;
51618;SDS011;38518;53.164;5.430;2022-09-09T16:43:58;3.10;;;2.25;;
51618;SDS011;38518;53.164;5.430;2022-09-09T16:46:27;2.88;;;2.28;;
51618;SDS011;38518;53.164;5.430;2022-09-09T16:48:58;3.95;;;2.53;;
51618;SDS011;38518;53.164;5.430;2022-09-09T16:51:26;6.30;;;2.95;;
51618;SDS011;38518;53.164;5.430;2022-09-09T16:54:00;3.50;;;2.65;;
51618;SDS011;38518;53.164;5.430;2022-09-09T16:56:28;5.38;;;2.85;;
51618;SDS011;38518;53.164;5.430;2022-09-09T16:58:57;5.68;;;3.00;;
51618;SDS011;38518;53.164;5.430;2022-09-09T17:01:26;4.88;;;3.10;;
51618;SDS011;38518;53.164;5.430;2022-09-09T17:03:56;3.08;;;2.42;;
51618;SDS011;38518;53.164;5.430;2022-09-09T17:06:23;3.90;;;2.53;;
51618;SDS011;38518;53.164;5.430;2022-09-09T17:08:54;4.75;;;2.45;;
51618;SDS011;38518;53.164;5.430;2022-09-09T17:11:20;4.78;;;2.58;;
51618;SDS011;38518;53.164;5.430;2022-09-09T17:13:50;3.50;;;3.17;;
51618;SDS011;38518;53.164;5.430;2022-09-09T17:16:17;3.95;;;2.58;;
51618;SDS011;38518;53.164;5.430;2022-09-09T17:18:47;3.25;;;2.83;;
51618;SDS011;38518;53.164;5.430;2022-09-09T17:21:14;4.47;;;2.78;;
51618;SDS011;38518;53.164;5.430;2022-09-09T17:23:41;6.05;;;3.15;;
51618;SDS011;38518;53.164;5.430;2022-09-09T17:26:09;5.68;;;3.92;;
51618;SDS011;38518;53.164;5.430;2022-09-09T17:28:37;4.93;;;3.40;;